createdAt,value
2017-09-16T00:01:35.739Z,99.90
2017-09-16T00:04:06.442Z,99.90
2017-09-16T00:06:34.447Z,99.90
2017-09-16T00:09:03.251Z,99.90
2017-09-16T00:11:31.266Z,99.90
2017-09-16T00:14:10.583Z,99.90
2017-09-16T00:16:38.592Z,99.90
2017-09-16T00:19:06.607Z,99.90
2017-09-16T00:21:34.635Z,99.90
2017-09-16T00:24:03.530Z,99.90
2017-09-16T00:26:32.338Z,99.90
2017-09-16T00:29:01.303Z,99.90
2017-09-16T00:31:30.291Z,99.90
2017-09-16T00:33:58.306Z,99.90
2017-09-16T00:36:26.684Z,99.90
2017-09-16T00:38:54.686Z,99.90
2017-09-16T00:41:24.618Z,99.90
2017-09-16T00:43:52.650Z,99.90
2017-09-16T00:46:23.331Z,99.90
2017-09-16T00:48:51.346Z,99.90
2017-09-16T00:51:19.358Z,99.90
2017-09-16T00:53:47.414Z,99.90
2017-09-16T00:56:16.326Z,99.90
2017-09-16T00:58:44.351Z,99.90
2017-09-16T01:01:12.354Z,99.90
2017-09-16T01:03:40.362Z,99.90
2017-09-16T01:06:10.155Z,99.90
2017-09-16T01:08:39.816Z,99.90
2017-09-16T01:11:07.963Z,99.90
2017-09-16T01:13:40.198Z,99.90
2017-09-16T01:16:09.074Z,99.90
2017-09-16T01:18:38.046Z,99.90
2017-09-16T01:21:06.090Z,99.90
2017-09-16T01:23:34.106Z,99.90
2017-09-16T01:26:04.014Z,99.90
2017-09-16T01:28:32.030Z,99.90
2017-09-16T01:31:00.051Z,99.90
2017-09-16T01:33:29.958Z,99.90
2017-09-16T01:35:58.751Z,99.90
2017-09-16T01:38:28.458Z,99.90
2017-09-16T01:41:02.326Z,99.90
2017-09-16T01:43:34.634Z,99.90
2017-09-16T01:46:04.658Z,99.90
2017-09-16T01:48:32.662Z,99.90
2017-09-16T01:51:02.442Z,99.90
2017-09-16T01:53:30.453Z,99.90
2017-09-16T01:55:58.502Z,99.90
2017-09-16T01:58:29.210Z,99.90
2017-09-16T02:00:57.233Z,99.90
2017-09-16T02:03:25.242Z,99.90
2017-09-16T02:05:53.254Z,99.90
2017-09-16T02:08:22.056Z,99.90
2017-09-16T02:10:50.062Z,99.90
2017-09-16T02:13:18.082Z,99.90
2017-09-16T02:15:49.793Z,99.90
2017-09-16T02:18:18.790Z,99.90
2017-09-16T02:20:46.797Z,99.90
2017-09-16T02:23:16.565Z,99.90
2017-09-16T02:25:45.713Z,99.90
2017-09-16T02:28:14.658Z,99.90
2017-09-16T02:30:42.674Z,99.90
2017-09-16T02:33:10.690Z,99.90
2017-09-16T02:35:38.698Z,99.90
2017-09-16T02:38:08.498Z,99.90
2017-09-16T02:40:36.513Z,99.90
2017-09-16T02:43:06.446Z,99.90
2017-09-16T02:45:34.481Z,99.90
2017-09-16T02:48:04.437Z,99.90
2017-09-16T02:50:32.449Z,99.90
2017-09-16T02:53:01.256Z,99.90
2017-09-16T02:55:29.262Z,99.90
2017-09-16T02:57:57.320Z,99.90
2017-09-16T03:00:29.306Z,99.90
2017-09-16T03:02:57.333Z,99.90
2017-09-16T03:05:25.373Z,99.90
2017-09-16T03:07:53.389Z,99.90
2017-09-16T03:10:23.421Z,99.90
2017-09-16T03:12:52.320Z,99.90
2017-09-16T03:15:25.321Z,99.90
2017-09-16T03:17:54.288Z,99.90
2017-09-16T03:20:22.309Z,99.90
2017-09-16T03:22:51.097Z,99.90
2017-09-16T03:25:19.869Z,99.90
2017-09-16T03:27:49.652Z,99.90
2017-09-16T03:30:18.665Z,99.90
2017-09-16T03:32:46.689Z,99.90
2017-09-16T03:35:14.701Z,99.90
2017-09-16T03:37:44.463Z,99.90
2017-09-16T03:40:14.397Z,99.90
2017-09-16T03:42:42.425Z,99.90
2017-09-16T03:45:10.453Z,99.90
2017-09-16T03:47:38.468Z,99.90
2017-09-16T03:50:06.492Z,99.90
2017-09-16T03:52:34.504Z,99.90
2017-09-16T03:55:02.521Z,99.90
2017-09-16T03:57:30.536Z,99.90
2017-09-16T03:59:59.360Z,99.90
2017-09-16T04:02:39.384Z,99.90
2017-09-16T04:05:07.425Z,99.90
2017-09-16T04:07:37.413Z,99.90
2017-09-16T04:10:05.432Z,99.90
2017-09-16T04:12:34.228Z,99.90
2017-09-16T04:15:02.253Z,99.90
2017-09-16T04:17:30.261Z,99.90
2017-09-16T04:19:58.316Z,99.90
2017-09-16T04:22:27.088Z,99.90
2017-09-16T04:24:55.116Z,99.90
2017-09-16T04:27:23.137Z,99.90
2017-09-16T04:29:51.941Z,99.90
2017-09-16T04:32:19.968Z,99.90
2017-09-16T04:34:47.984Z,99.90
2017-09-16T04:37:15.992Z,99.90
2017-09-16T04:39:44.792Z,99.90
2017-09-16T04:42:12.832Z,99.90
2017-09-16T04:44:41.780Z,99.90
2017-09-16T04:47:09.756Z,99.90
2017-09-16T04:49:38.560Z,99.90
2017-09-16T04:52:07.336Z,99.90
2017-09-16T04:54:36.108Z,99.90
2017-09-16T04:57:06.108Z,99.90
2017-09-16T04:59:34.144Z,99.90
2017-09-16T05:02:02.304Z,99.90
2017-09-16T05:04:30.876Z,99.90
2017-09-16T05:06:58.904Z,99.90
2017-09-16T05:09:27.880Z,99.90
2017-09-16T05:11:56.924Z,99.90
2017-09-16T05:14:38.208Z,99.90
2017-09-16T05:17:07.120Z,99.90
2017-09-16T05:19:35.128Z,99.90
2017-09-16T05:22:03.144Z,99.90
2017-09-16T05:24:32.089Z,99.90
2017-09-16T05:27:00.107Z,99.90
2017-09-16T05:29:28.108Z,99.90
2017-09-16T05:31:56.140Z,99.90
2017-09-16T05:34:24.159Z,99.90
2017-09-16T05:36:52.184Z,99.90
2017-09-16T05:39:20.204Z,99.90
2017-09-16T05:41:51.744Z,99.90
2017-09-16T05:44:20.760Z,99.90
2017-09-16T05:46:48.781Z,99.90
2017-09-16T05:49:16.792Z,99.90
2017-09-16T05:51:55.608Z,99.90
2017-09-16T05:54:25.651Z,99.90
2017-09-16T05:56:54.424Z,99.90
2017-09-16T05:59:24.428Z,99.90
2017-09-16T06:01:54.436Z,99.90
2017-09-16T06:04:26.348Z,99.90
2017-09-16T06:06:54.360Z,99.90
2017-09-16T06:09:22.380Z,99.90
2017-09-16T06:11:55.097Z,99.90
2017-09-16T06:14:23.935Z,99.90
2017-09-16T06:16:53.712Z,99.90
2017-09-16T06:19:21.752Z,99.90
2017-09-16T06:21:50.780Z,99.90
2017-09-16T06:24:18.792Z,99.90
2017-09-16T06:26:47.889Z,99.90
2017-09-16T06:29:15.944Z,99.90
2017-09-16T06:31:45.747Z,99.90
2017-09-16T06:34:14.741Z,99.90
2017-09-16T06:36:44.459Z,99.90
2017-09-16T06:39:13.239Z,99.90
2017-09-16T06:41:42.032Z,99.90
2017-09-16T06:44:10.820Z,99.90
2017-09-16T06:46:40.807Z,99.90
2017-09-16T06:49:09.963Z,99.90
2017-09-16T06:51:38.895Z,99.90
2017-09-16T06:54:06.915Z,99.90
2017-09-16T06:56:34.972Z,99.90
2017-09-16T06:59:02.959Z,99.90
2017-09-16T07:01:31.887Z,99.90
2017-09-16T07:04:06.087Z,99.90
2017-09-16T07:09:39.896Z,99.90
2017-09-16T07:12:09.631Z,99.90
2017-09-16T07:14:38.219Z,99.90
2017-09-16T07:17:22.331Z,99.90
2017-09-16T07:20:16.119Z,99.90
2017-09-16T07:22:44.143Z,99.90
2017-09-16T07:25:16.575Z,99.90
2017-09-16T07:27:59.639Z,99.90
2017-09-16T07:30:29.031Z,99.90
2017-09-16T07:33:02.855Z,99.90
2017-09-16T07:35:31.796Z,99.90
2017-09-16T07:38:04.475Z,99.90
2017-09-16T07:40:38.318Z,99.90
2017-09-16T07:43:07.226Z,99.90
2017-09-16T07:45:36.859Z,99.90
2017-09-16T07:48:06.815Z,99.90
2017-09-16T07:50:34.835Z,99.90
2017-09-16T07:53:02.851Z,99.90
2017-09-16T07:55:34.499Z,99.90
2017-09-16T07:58:02.519Z,99.90
2017-09-16T08:00:33.322Z,99.90
2017-09-16T08:03:07.839Z,99.90
2017-09-16T08:05:37.631Z,99.90
2017-09-16T08:08:09.911Z,99.90
2017-09-16T08:10:39.943Z,99.90
2017-09-16T08:13:19.002Z,99.90
2017-09-16T08:15:48.034Z,99.90
2017-09-16T08:18:17.962Z,99.90
2017-09-16T08:20:47.893Z,99.90
2017-09-16T08:23:16.678Z,99.90
2017-09-16T08:25:44.704Z,99.90
2017-09-16T08:28:16.642Z,99.90
2017-09-16T08:33:39.354Z,99.90
2017-09-16T08:36:07.394Z,99.90
2017-09-16T08:38:40.334Z,99.90
2017-09-16T08:41:10.115Z,99.90
2017-09-16T08:43:40.035Z,99.90
2017-09-16T08:46:09.950Z,99.90
2017-09-16T08:48:39.882Z,99.90
2017-09-16T08:51:12.222Z,99.90
2017-09-16T08:53:40.266Z,99.90
2017-09-16T08:56:09.930Z,99.90
2017-09-16T08:58:39.642Z,99.90
2017-09-16T09:01:12.366Z,99.90
2017-09-16T09:03:40.414Z,99.90
2017-09-16T09:06:09.346Z,99.90
2017-09-16T09:08:37.370Z,99.90
2017-09-16T09:11:06.606Z,99.90
2017-09-16T09:13:34.630Z,99.90
2017-09-16T09:16:08.098Z,99.90
2017-09-16T09:18:36.141Z,99.90
2017-09-16T09:21:05.046Z,99.90
2017-09-16T09:23:33.079Z,99.90
2017-09-16T09:26:03.077Z,99.90
2017-09-16T09:28:33.750Z,99.90
2017-09-16T09:31:01.766Z,99.90
2017-09-16T09:33:30.546Z,99.90
2017-09-16T09:35:59.355Z,99.90
2017-09-16T09:38:31.940Z,99.90
2017-09-16T09:41:00.894Z,99.90
2017-09-16T09:43:28.918Z,99.90
2017-09-16T09:45:57.934Z,99.90
2017-09-16T09:48:25.970Z,99.90
2017-09-16T09:50:55.922Z,99.90
2017-09-16T09:53:24.706Z,99.90
2017-09-16T09:55:52.782Z,99.90
2017-09-16T09:58:20.802Z,99.90
2017-09-16T10:00:48.810Z,99.90
2017-09-16T10:03:17.621Z,99.90
2017-09-16T10:05:49.466Z,99.90
2017-09-16T10:08:17.490Z,99.90
2017-09-16T10:10:45.578Z,99.90
2017-09-16T10:13:13.585Z,99.90
2017-09-16T10:15:41.685Z,99.90
2017-09-16T10:18:09.674Z,99.90
2017-09-16T10:20:38.602Z,99.90
2017-09-16T10:23:09.559Z,99.90
2017-09-16T10:25:37.581Z,99.90
2017-09-16T10:28:05.597Z,99.90
2017-09-16T10:30:33.629Z,99.90
2017-09-16T10:33:01.669Z,99.90
2017-09-16T10:35:29.701Z,99.90
2017-09-16T10:37:58.749Z,99.90
2017-09-16T10:40:26.755Z,99.90
2017-09-16T10:42:54.797Z,99.90
2017-09-16T10:45:23.725Z,99.90
2017-09-16T10:47:51.749Z,99.90
2017-09-16T10:50:23.861Z,99.90
2017-09-16T10:52:52.838Z,99.90
2017-09-16T10:55:21.834Z,99.90
2017-09-16T10:57:49.889Z,99.90
2017-09-16T11:00:18.901Z,99.90
2017-09-16T11:02:48.926Z,99.90
2017-09-16T11:05:18.217Z,99.90
2017-09-16T11:07:46.193Z,99.90
2017-09-16T11:10:14.245Z,99.90
2017-09-16T11:12:42.274Z,99.90
2017-09-16T11:15:10.285Z,99.90
2017-09-16T11:17:38.316Z,99.90
2017-09-16T11:20:06.337Z,99.90
2017-09-16T11:22:34.405Z,99.90
2017-09-16T11:25:03.405Z,99.90
2017-09-16T11:27:31.429Z,99.90
2017-09-16T11:30:01.169Z,99.90
2017-09-16T11:32:30.173Z,99.90
2017-09-16T11:35:03.877Z,99.90
2017-09-16T11:37:31.928Z,99.90
2017-09-16T11:40:00.541Z,99.90
2017-09-16T11:42:29.525Z,99.90
2017-09-16T11:44:57.564Z,99.90
2017-09-16T11:47:25.577Z,99.90
2017-09-16T11:49:54.378Z,99.90
2017-09-16T11:52:23.160Z,99.90
2017-09-16T11:54:52.744Z,99.90
2017-09-16T11:57:20.788Z,99.90
2017-09-16T11:59:49.845Z,99.90
2017-09-16T12:02:17.868Z,99.90
2017-09-16T12:04:45.884Z,99.90
2017-09-16T12:07:17.704Z,99.90
2017-09-16T12:09:45.720Z,99.90
2017-09-16T12:12:13.754Z,99.90
2017-09-16T12:14:41.780Z,99.90
2017-09-16T12:17:12.537Z,99.90
2017-09-16T12:19:41.536Z,99.90
2017-09-16T12:22:09.576Z,99.90
2017-09-16T12:24:37.596Z,99.90
2017-09-16T12:27:06.389Z,99.90
2017-09-16T12:29:35.176Z,99.90
2017-09-16T12:32:04.509Z,99.90
2017-09-16T12:34:32.556Z,99.90
2017-09-16T12:37:03.252Z,99.90
2017-09-16T12:39:32.252Z,99.90
2017-09-16T12:42:00.276Z,99.90
2017-09-16T12:44:29.329Z,99.90
2017-09-16T12:46:58.304Z,99.90
2017-09-16T12:49:26.320Z,99.90
2017-09-16T12:51:55.256Z,99.90
2017-09-16T12:54:23.289Z,99.90
2017-09-16T12:56:52.212Z,99.90
2017-09-16T12:59:20.236Z,99.90
2017-09-16T13:01:52.586Z,99.90
2017-09-16T13:04:21.372Z,99.90
2017-09-16T13:06:49.408Z,99.90
2017-09-16T13:09:17.448Z,99.90
2017-09-16T13:11:45.460Z,99.90
2017-09-16T13:14:13.481Z,99.90
2017-09-16T13:16:41.508Z,99.90
2017-09-16T13:19:11.508Z,99.90
2017-09-16T13:21:39.560Z,99.90
2017-09-16T13:24:08.480Z,99.90
2017-09-16T13:26:36.508Z,99.90
2017-09-16T13:29:05.475Z,99.90
2017-09-16T13:31:33.480Z,99.90
2017-09-16T13:34:02.496Z,99.90
2017-09-16T13:36:31.491Z,99.90
2017-09-16T13:38:59.543Z,99.90
2017-09-16T13:41:29.464Z,99.90
2017-09-16T13:43:57.487Z,99.90
2017-09-16T13:46:25.528Z,99.90
2017-09-16T13:48:56.976Z,99.90
2017-09-16T13:51:24.992Z,99.90
2017-09-16T13:53:53.043Z,99.90
2017-09-16T13:56:22.744Z,99.90
2017-09-16T13:58:51.544Z,99.90
2017-09-16T14:01:19.572Z,99.90
2017-09-16T14:03:47.589Z,99.90
2017-09-16T14:06:16.527Z,99.90
2017-09-16T14:08:45.513Z,99.90
2017-09-16T14:11:14.508Z,99.90
2017-09-16T14:13:43.423Z,99.90
2017-09-16T14:16:11.451Z,99.90
2017-09-16T14:18:42.515Z,99.90
2017-09-16T14:21:10.549Z,99.90
2017-09-16T14:23:42.299Z,99.90
2017-09-16T14:26:11.044Z,99.90
2017-09-16T14:28:39.055Z,99.90
2017-09-16T14:31:07.660Z,99.90
2017-09-16T14:33:36.575Z,99.90
2017-09-16T14:36:06.603Z,99.90
2017-09-16T14:38:36.504Z,99.90
2017-09-16T14:41:05.406Z,99.90
2017-09-16T14:43:33.494Z,99.90
2017-09-16T14:46:02.255Z,99.00
2017-09-16T14:48:30.291Z,98.80
2017-09-16T14:50:59.311Z,89.30
2017-09-16T14:53:27.315Z,77.10
2017-09-16T14:55:57.083Z,80.30
2017-09-16T14:58:25.118Z,80.40
2017-09-16T15:00:53.123Z,88.90
2017-09-16T15:03:21.139Z,95.50
2017-09-16T15:05:49.203Z,99.90
2017-09-16T15:08:19.955Z,99.90
2017-09-16T15:10:49.762Z,99.90
2017-09-16T15:13:20.329Z,99.90
2017-09-16T15:15:50.380Z,99.90
2017-09-16T15:18:19.347Z,99.90
2017-09-16T15:20:47.995Z,99.90
2017-09-16T15:23:21.439Z,99.90
2017-09-16T15:25:49.471Z,99.90
2017-09-16T15:28:18.257Z,99.90
2017-09-16T15:30:47.211Z,99.90
2017-09-16T15:33:15.995Z,99.70
2017-09-16T15:35:44.811Z,99.50
2017-09-16T15:38:12.836Z,99.50
2017-09-16T15:40:40.882Z,98.80
2017-09-16T15:43:10.547Z,96.40
2017-09-16T15:45:38.583Z,96.40
2017-09-16T15:48:10.319Z,96.00
2017-09-16T15:50:43.179Z,94.30
2017-09-16T15:53:11.191Z,93.50
2017-09-16T15:55:40.158Z,94.80
2017-09-16T15:58:09.172Z,96.40
2017-09-16T16:00:37.179Z,94.60
2017-09-16T16:03:05.963Z,94.60
2017-09-16T16:05:35.730Z,94.90
2017-09-16T16:08:03.762Z,94.90
2017-09-16T16:10:31.811Z,94.40
2017-09-16T16:13:00.779Z,93.70
2017-09-16T16:15:29.758Z,94.10
2017-09-16T16:17:57.775Z,95.40
2017-09-16T16:20:25.827Z,97.50
2017-09-16T16:22:55.630Z,99.90
2017-09-16T16:25:26.387Z,99.90
2017-09-16T16:27:59.223Z,99.90
2017-09-16T16:30:27.246Z,99.90
2017-09-16T16:32:55.250Z,99.90
2017-09-16T16:35:24.258Z,99.90
2017-09-16T16:37:55.726Z,99.90
2017-09-16T16:40:25.511Z,99.90
2017-09-16T16:42:54.498Z,99.90
2017-09-16T16:45:22.538Z,99.90
2017-09-16T16:47:51.462Z,99.90
2017-09-16T16:50:19.483Z,99.90
2017-09-16T16:52:47.510Z,99.90
2017-09-16T16:55:16.490Z,99.90
2017-09-16T16:57:52.062Z,99.90
2017-09-16T17:00:22.050Z,99.90
2017-09-16T17:02:50.070Z,99.90
2017-09-16T17:05:18.122Z,99.90
2017-09-16T17:07:46.914Z,99.90
2017-09-16T17:10:19.446Z,99.90
2017-09-16T17:12:47.462Z,99.90
2017-09-16T17:15:17.241Z,99.90
2017-09-16T17:17:45.278Z,99.90
2017-09-16T17:20:16.354Z,99.90
2017-09-16T17:22:46.382Z,99.90
2017-09-16T17:25:15.369Z,99.90
2017-09-16T17:27:44.214Z,99.90
2017-09-16T17:30:13.254Z,99.90
2017-09-16T17:32:44.485Z,99.90
2017-09-16T17:35:16.245Z,99.90
2017-09-16T17:37:44.277Z,99.90
2017-09-16T17:40:12.301Z,99.90
2017-09-16T17:42:40.334Z,99.90
2017-09-16T17:45:10.265Z,99.90
2017-09-16T17:47:39.282Z,99.90
2017-09-16T17:50:08.102Z,99.90
2017-09-16T17:52:37.057Z,99.90
2017-09-16T17:55:05.066Z,99.90
2017-09-16T17:57:35.100Z,99.90
2017-09-16T18:00:03.105Z,99.90
2017-09-16T18:02:33.118Z,99.90
2017-09-16T18:05:01.165Z,99.90
2017-09-16T18:07:35.297Z,99.90
2017-09-16T18:10:05.368Z,99.90
2017-09-16T18:12:34.314Z,99.90
2017-09-16T18:15:03.286Z,99.90
2017-09-16T18:17:33.321Z,99.90
2017-09-16T18:20:01.413Z,99.90
2017-09-16T18:22:33.249Z,99.90
2017-09-16T18:25:02.229Z,99.90
2017-09-16T18:27:31.021Z,99.90
2017-09-16T18:30:00.033Z,99.90
2017-09-16T18:32:30.033Z,99.90
2017-09-16T18:34:59.017Z,99.90
2017-09-16T18:37:29.057Z,99.90
2017-09-16T18:39:58.033Z,99.90
2017-09-16T18:42:26.050Z,99.90
2017-09-16T18:44:54.077Z,99.90
2017-09-16T18:47:22.136Z,99.90
2017-09-16T18:49:55.981Z,99.90
2017-09-16T18:52:24.753Z,99.90
2017-09-16T18:54:53.777Z,99.90
2017-09-16T18:57:21.805Z,99.90
2017-09-16T18:59:49.861Z,99.90
2017-09-16T19:02:18.769Z,99.90
2017-09-16T19:04:48.696Z,99.90
2017-09-16T19:07:17.489Z,99.90
2017-09-16T19:09:46.324Z,99.90
2017-09-16T19:12:14.349Z,99.90
2017-09-16T19:14:44.125Z,99.90
2017-09-16T19:17:13.121Z,99.90
2017-09-16T19:19:43.149Z,99.90
2017-09-16T19:22:13.153Z,99.90
2017-09-16T19:24:42.156Z,99.90
2017-09-16T19:27:11.173Z,99.90
2017-09-16T19:29:41.689Z,99.90
2017-09-16T19:32:11.537Z,99.90
2017-09-16T19:34:39.560Z,99.90
2017-09-16T19:37:12.961Z,99.90
2017-09-16T19:39:41.940Z,99.90
2017-09-16T19:42:10.013Z,99.90
2017-09-16T19:44:38.044Z,99.90
2017-09-16T19:47:07.686Z,99.90
2017-09-16T19:49:36.676Z,99.90
2017-09-16T19:52:04.814Z,99.90
2017-09-16T19:54:33.749Z,99.90
2017-09-16T19:57:03.488Z,99.90
2017-09-16T19:59:34.952Z,99.90
2017-09-16T20:02:03.809Z,99.90
2017-09-16T20:04:31.828Z,99.90
2017-09-16T20:07:01.828Z,99.90
2017-09-16T20:09:30.775Z,99.90
2017-09-16T20:12:00.784Z,99.90
2017-09-16T20:14:28.825Z,99.90
2017-09-16T20:16:57.848Z,99.90
2017-09-16T20:19:28.524Z,99.90
2017-09-16T20:21:56.552Z,99.90
2017-09-16T20:24:30.156Z,99.90
2017-09-16T20:26:58.177Z,99.90
2017-09-16T20:29:27.112Z,99.90
2017-09-16T20:31:55.140Z,99.90
2017-09-16T20:34:27.804Z,99.90
2017-09-16T20:36:59.424Z,99.90
2017-09-16T20:39:27.444Z,99.90
2017-09-16T20:41:55.464Z,99.90
2017-09-16T20:44:24.468Z,99.90
2017-09-16T20:46:52.516Z,99.90
2017-09-16T20:49:20.528Z,99.90
2017-09-16T20:51:49.317Z,99.90
2017-09-16T20:54:18.108Z,99.90
2017-09-16T20:56:46.128Z,99.90
2017-09-16T20:59:15.168Z,99.90
2017-09-16T21:01:43.187Z,99.90
2017-09-16T21:04:11.244Z,99.90
2017-09-16T21:06:41.220Z,99.90
2017-09-16T21:09:09.240Z,99.90
2017-09-16T21:11:37.260Z,99.90
2017-09-16T21:14:05.308Z,99.90
2017-09-16T21:16:35.100Z,99.90
2017-09-16T21:19:03.124Z,99.90
2017-09-16T21:21:32.112Z,99.90
2017-09-16T21:24:01.060Z,99.90
2017-09-16T21:26:29.120Z,99.90
2017-09-16T21:28:57.144Z,99.90
2017-09-16T21:31:25.160Z,99.90
2017-09-16T21:33:53.176Z,99.90
2017-09-16T21:36:21.244Z,99.90
2017-09-16T21:38:50.024Z,99.90
2017-09-16T21:41:18.808Z,99.90
2017-09-16T21:43:47.596Z,99.90
2017-09-16T21:46:16.368Z,99.90
2017-09-16T21:48:45.280Z,99.90
2017-09-16T21:51:15.128Z,99.90
2017-09-16T21:53:43.120Z,99.90
2017-09-16T21:56:11.144Z,99.90
2017-09-16T21:58:39.355Z,99.90
2017-09-16T22:01:11.328Z,99.90
2017-09-16T22:03:39.368Z,99.90
2017-09-16T22:06:12.376Z,99.90
2017-09-16T22:08:42.060Z,99.90
2017-09-16T22:11:10.084Z,99.90
2017-09-16T22:13:42.752Z,99.90
2017-09-16T22:16:11.743Z,99.90
2017-09-16T22:18:40.719Z,99.90
2017-09-16T22:21:09.723Z,99.90
2017-09-16T22:23:38.703Z,99.90
2017-09-16T22:26:06.712Z,99.90
2017-09-16T22:28:37.415Z,99.90
2017-09-16T22:31:05.436Z,99.90
2017-09-16T22:33:33.459Z,99.90
2017-09-16T22:36:01.768Z,99.90
2017-09-16T22:38:29.833Z,99.90
2017-09-16T22:40:57.839Z,99.90
2017-09-16T22:43:25.923Z,99.90
2017-09-16T22:45:53.915Z,99.90
2017-09-16T22:48:22.079Z,99.90
2017-09-16T22:50:50.143Z,99.90
2017-09-16T22:53:18.154Z,99.90
2017-09-16T22:55:46.179Z,99.90
2017-09-16T22:58:14.271Z,99.90
2017-09-16T23:00:43.239Z,99.90
2017-09-16T23:03:11.259Z,99.90
2017-09-16T23:05:39.319Z,99.90
2017-09-16T23:08:08.103Z,99.90
2017-09-16T23:10:43.727Z,99.90
2017-09-16T23:13:12.711Z,99.90
2017-09-16T23:15:40.763Z,99.90
2017-09-16T23:18:09.687Z,99.90
2017-09-16T23:20:37.698Z,99.90
2017-09-16T23:23:06.615Z,99.90
2017-09-16T23:25:34.651Z,99.90
2017-09-16T23:28:02.668Z,99.90
2017-09-16T23:30:31.610Z,99.90
2017-09-16T23:32:59.643Z,99.90
2017-09-16T23:35:29.644Z,99.90
2017-09-16T23:37:57.667Z,99.90
2017-09-16T23:40:25.698Z,99.90
2017-09-16T23:42:53.718Z,99.90
2017-09-16T23:45:23.667Z,99.90
2017-09-16T23:47:53.702Z,99.90
2017-09-16T23:50:22.730Z,99.90
2017-09-16T23:52:50.754Z,99.90
2017-09-16T23:55:18.802Z,99.90
2017-09-16T23:57:48.735Z,99.90
